Time;durP1;ratioP1;P1;durP2;ratioP2;P2;SDS_P1;SDS_P2;PMS_P1;PMS_P2;Temp;Humidity;BMP_temperature;BMP_pressure;BME280_temperature;BME280_humidity;BME280_pressure;Samples;Min_cycle;Max_cycle;Signal;HPM_P1;HPM_P2
2022/05/28 00:02:05;;;;;;;12.02;2.35;;;11.40;99.90;;;;;;5031681;28;20042;-78
2022/05/28 00:04:31;;;;;;;10.35;2.50;;;11.40;99.90;;;;;;5032359;28;20076;-78
2022/05/28 00:06:56;;;;;;;10.90;2.03;;;11.40;99.90;;;;;;5031964;28;20044;-78
2022/05/28 00:09:22;;;;;;;14.63;2.58;;;11.50;99.90;;;;;;5015644;28;20042;-78
2022/05/28 00:11:48;;;;;;;12.13;2.33;;;11.50;99.90;;;;;;5032234;28;20524;-78
2022/05/28 00:14:14;;;;;;;10.00;2.10;;;11.50;99.90;;;;;;5032350;28;20041;-78
2022/05/28 00:16:41;;;;;;;11.40;2.30;;;11.40;99.90;;;;;;5031882;28;20055;-78
2022/05/28 00:19:08;;;;;;;11.25;2.17;;;11.40;99.90;;;;;;5000167;28;20128;-78
2022/05/28 00:21:34;;;;;;;12.05;2.25;;;11.30;99.90;;;;;;5032365;28;20061;-78
2022/05/28 00:24:00;;;;;;;10.20;2.20;;;11.20;99.90;;;;;;5032590;28;20400;-78
2022/05/28 00:26:26;;;;;;;10.20;2.10;;;11.20;99.90;;;;;;5016069;28;20428;-78
2022/05/28 00:28:52;;;;;;;8.60;2.03;;;11.10;99.90;;;;;;5015927;28;20046;-78
2022/05/28 00:31:19;;;;;;;14.15;2.05;;;11.10;99.90;;;;;;5015377;28;20041;-78
2022/05/28 00:33:45;;;;;;;10.75;2.00;;;11.00;99.90;;;;;;5031942;28;20040;-78
2022/05/28 00:36:12;;;;;;;10.40;2.28;;;11.00;99.90;;;;;;5032038;28;20472;-78
2022/05/28 00:38:40;;;;;;;9.10;2.00;;;10.90;99.90;;;;;;5016058;28;20233;-78
2022/05/28 00:41:08;;;;;;;9.35;1.77;;;10.80;99.90;;;;;;5015349;28;20048;-78
2022/05/28 00:43:34;;;;;;;9.48;1.70;;;10.80;99.90;;;;;;5031712;28;20103;-78
2022/05/28 00:46:07;;;;;;;7.35;1.80;;;10.70;99.90;;;;;;5015597;28;20046;-78
2022/05/28 00:48:35;;;;;;;9.27;1.80;;;10.70;99.90;;;;;;5031557;28;20512;-78
2022/05/28 00:51:11;;;;;;;9.70;1.75;;;10.70;99.90;;;;;;5031419;28;20477;-78
2022/05/28 00:53:37;;;;;;;9.82;1.73;;;10.60;99.90;;;;;;5031585;28;20477;-78
2022/05/28 00:56:04;;;;;;;8.57;1.88;;;10.50;99.90;;;;;;5032012;28;20095;-78
2022/05/28 00:58:31;;;;;;;10.43;1.83;;;10.50;99.90;;;;;;5018938;28;20136;-78
2022/05/28 01:00:58;;;;;;;9.40;1.77;;;10.50;99.90;;;;;;5035422;28;20091;-78
2022/05/28 01:03:34;;;;;;;9.30;1.70;;;10.50;99.90;;;;;;5001682;28;20041;-78
2022/05/28 01:06:12;;;;;;;8.13;1.52;;;10.50;99.90;;;;;;5035440;28;20563;-78
2022/05/28 01:08:43;;;;;;;8.30;1.77;;;10.50;99.90;;;;;;5035211;28;20045;-78
2022/05/28 01:11:36;;;;;;;8.75;1.73;;;10.50;99.90;;;;;;5035202;28;20128;-78
2022/05/28 01:14:18;;;;;;;10.90;1.77;;;10.40;99.90;;;;;;5018779;28;20041;-79
2022/05/28 01:16:49;;;;;;;7.50;1.60;;;10.40;99.90;;;;;;5017817;28;20029;-79
2022/05/28 01:19:32;;;;;;;10.20;1.85;;;10.30;99.90;;;;;;5018928;28;20099;-79
2022/05/28 01:22:16;;;;;;;8.75;2.05;;;10.30;99.90;;;;;;5034836;28;20447;-79
2022/05/28 01:25:17;;;;;;;9.63;1.92;;;10.30;99.90;;;;;;5034927;28;20119;-79
2022/05/28 01:27:49;;;;;;;12.95;1.88;;;10.30;99.90;;;;;;5034999;28;20033;-79
2022/05/28 01:30:16;;;;;;;10.97;1.93;;;10.30;99.90;;;;;;5034824;28;20076;-78
2022/05/28 01:32:46;;;;;;;8.23;1.90;;;10.30;99.90;;;;;;5033937;28;20079;-78
2022/05/28 01:35:15;;;;;;;11.85;2.17;;;10.30;99.90;;;;;;5018429;28;20457;-78
2022/05/28 01:37:44;;;;;;;10.35;1.90;;;10.30;99.90;;;;;;5018063;28;20037;-78
2022/05/28 01:40:11;;;;;;;9.45;1.65;;;10.30;99.90;;;;;;5018133;28;20044;-78
2022/05/28 01:42:43;;;;;;;10.93;1.85;;;10.30;99.90;;;;;;5034334;28;20041;-78
2022/05/28 01:45:10;;;;;;;13.13;2.00;;;10.30;99.90;;;;;;5034957;28;20096;-78
2022/05/28 01:47:36;;;;;;;11.70;1.90;;;10.30;99.90;;;;;;5017502;28;20280;-78
2022/05/28 01:50:05;;;;;;;10.32;1.80;;;10.30;99.90;;;;;;5034507;28;20607;-78
2022/05/28 01:52:33;;;;;;;13.27;2.10;;;10.20;99.90;;;;;;5018012;28;20524;-78
2022/05/28 01:55:01;;;;;;;11.18;2.05;;;10.20;99.90;;;;;;5034402;28;20054;-78
2022/05/28 01:57:27;;;;;;;8.80;1.88;;;10.10;99.90;;;;;;5017580;28;20041;-78
2022/05/28 01:59:53;;;;;;;10.80;1.90;;;10.20;99.90;;;;;;5034371;28;20042;-78
2022/05/28 02:02:19;;;;;;;11.27;2.15;;;10.10;99.90;;;;;;5033760;28;20488;-78
2022/05/28 02:04:48;;;;;;;9.52;2.05;;;10.00;99.90;;;;;;5034508;28;20048;-78
2022/05/28 02:07:15;;;;;;;12.80;2.30;;;10.00;99.90;;;;;;5033654;28;20049;-78
2022/05/28 02:09:52;;;;;;;10.95;2.05;;;10.00;99.90;;;;;;5034205;28;20046;-78
2022/05/28 02:12:26;;;;;;;10.75;2.20;;;10.00;99.90;;;;;;5034012;28;20555;-78
2022/05/28 02:15:06;;;;;;;12.05;2.05;;;10.00;99.90;;;;;;5017470;28;20047;-78
2022/05/28 02:17:34;;;;;;;9.38;1.88;;;9.90;99.90;;;;;;5033169;28;20191;-78
2022/05/28 02:20:21;;;;;;;10.20;1.80;;;9.90;99.90;;;;;;5034245;28;20485;-79
2022/05/28 02:23:00;;;;;;;10.43;1.92;;;9.90;99.90;;;;;;5033563;28;20064;-79
2022/05/28 02:25:40;;;;;;;10.57;2.08;;;9.90;99.90;;;;;;5034102;28;20444;-79
2022/05/28 02:28:08;;;;;;;12.10;2.28;;;9.80;99.90;;;;;;5017116;28;20045;-79
2022/05/28 02:30:44;;;;;;;11.30;2.25;;;9.80;99.90;;;;;;5033812;28;20042;-78
2022/05/28 02:33:10;;;;;;;8.48;1.67;;;9.80;99.90;;;;;;5033123;28;20374;-78
2022/05/28 02:35:35;;;;;;;9.50;2.03;;;9.80;99.90;;;;;;5017082;28;20091;-78
2022/05/28 02:38:01;;;;;;;10.48;2.05;;;9.80;99.90;;;;;;5017164;28;20082;-78
2022/05/28 02:40:27;;;;;;;11.93;1.98;;;9.70;99.90;;;;;;5033842;28;20042;-78
2022/05/28 02:42:53;;;;;;;10.35;2.00;;;9.70;99.90;;;;;;5033298;28;20047;-78
2022/05/28 02:45:19;;;;;;;10.57;2.00;;;9.70;99.90;;;;;;5017258;28;20072;-78
2022/05/28 02:47:45;;;;;;;11.80;1.98;;;9.70;99.90;;;;;;5031199;28;20099;-78
2022/05/28 02:50:11;;;;;;;12.07;2.22;;;9.70;99.90;;;;;;5033327;28;20151;-78
2022/05/28 02:52:37;;;;;;;11.55;2.08;;;9.60;99.90;;;;;;5038621;28;20080;-78
2022/05/28 02:55:03;;;;;;;9.73;1.92;;;9.60;99.90;;;;;;5053197;28;20059;-78
2022/05/28 02:57:29;;;;;;;11.88;2.10;;;9.60;99.90;;;;;;5022118;28;20080;-78
2022/05/28 02:59:56;;;;;;;9.57;2.00;;;9.60;99.90;;;;;;5036524;28;20447;-78
2022/05/28 03:02:22;;;;;;;12.63;2.05;;;9.60;99.90;;;;;;5052381;28;20051;-78
2022/05/28 03:04:48;;;;;;;9.10;2.00;;;9.50;99.90;;;;;;5044158;28;20056;-79
2022/05/28 03:07:14;;;;;;;9.88;1.88;;;9.50;99.90;;;;;;5047726;28;20459;-79
2022/05/28 03:09:40;;;;;;;9.75;1.92;;;9.60;99.90;;;;;;5052859;28;20120;-79
2022/05/28 03:12:06;;;;;;;11.30;2.10;;;9.50;99.90;;;;;;5035951;28;20079;-78
2022/05/28 03:14:31;;;;;;;10.65;2.25;;;9.50;99.90;;;;;;5052519;28;20056;-78
2022/05/28 03:16:57;;;;;;;11.30;1.75;;;9.50;99.90;;;;;;5051915;28;20091;-78
2022/05/28 03:19:23;;;;;;;11.40;1.90;;;9.40;99.90;;;;;;5051580;28;20040;-78
2022/05/28 03:21:48;;;;;;;10.85;1.85;;;9.40;99.90;;;;;;5043856;28;20072;-78
2022/05/28 03:24:14;;;;;;;11.00;1.98;;;9.50;99.90;;;;;;5030217;28;20048;-78
2022/05/28 03:26:40;;;;;;;7.65;1.98;;;9.50;99.90;;;;;;5035973;28;20040;-78
2022/05/28 03:29:05;;;;;;;12.52;2.05;;;9.40;99.90;;;;;;5035802;28;20122;-78
2022/05/28 03:31:32;;;;;;;12.60;2.08;;;9.50;99.90;;;;;;5051687;28;20043;-78
2022/05/28 03:33:58;;;;;;;10.85;2.10;;;9.40;99.90;;;;;;5036032;28;20033;-78
2022/05/28 03:36:25;;;;;;;12.60;2.20;;;9.50;99.90;;;;;;5051838;28;20113;-78
2022/05/28 03:38:51;;;;;;;11.00;2.20;;;9.50;99.90;;;;;;5052378;28;20041;-78
2022/05/28 03:41:17;;;;;;;9.45;1.92;;;9.40;99.90;;;;;;5052183;28;20040;-78
2022/05/28 03:43:42;;;;;;;8.35;1.92;;;9.50;99.90;;;;;;5035522;28;20051;-78
2022/05/28 03:46:39;;;;;;;9.45;2.00;;;9.50;99.90;;;;;;5034627;28;20094;-79
2022/05/28 03:49:26;;;;;;;10.55;2.08;;;9.60;99.90;;;;;;5023279;28;20127;-79
2022/05/28 03:51:52;;;;;;;11.05;2.22;;;9.50;99.90;;;;;;5051961;28;20071;-79
2022/05/28 03:54:18;;;;;;;10.90;2.25;;;9.60;99.90;;;;;;5052089;28;20044;-79
2022/05/28 03:56:45;;;;;;;11.30;2.03;;;9.60;99.90;;;;;;5020978;28;20400;-79
2022/05/28 03:59:11;;;;;;;9.75;2.05;;;9.60;99.90;;;;;;5051962;28;20076;-79
2022/05/28 04:01:38;;;;;;;12.23;2.22;;;9.60;99.90;;;;;;5051045;28;20045;-79
2022/05/28 04:04:04;;;;;;;13.13;2.25;;;9.60;99.90;;;;;;5018831;28;20063;-79
2022/05/28 04:06:30;;;;;;;13.45;2.60;;;9.60;99.90;;;;;;5031589;28;20043;-79
2022/05/28 04:08:56;;;;;;;12.85;2.38;;;9.60;99.90;;;;;;5032375;28;20041;-79
2022/05/28 04:11:22;;;;;;;13.00;2.28;;;9.70;99.90;;;;;;5051515;28;20441;-79
2022/05/28 04:13:48;;;;;;;11.90;2.25;;;9.80;99.90;;;;;;5034842;28;20417;-79
2022/05/28 04:16:14;;;;;;;12.95;2.10;;;9.80;99.90;;;;;;5050801;28;20403;-79
2022/05/28 04:18:40;;;;;;;12.70;2.10;;;9.90;99.90;;;;;;5034929;28;20044;-79
2022/05/28 04:21:07;;;;;;;12.70;2.17;;;9.90;99.90;;;;;;5051128;28;20087;-79
2022/05/28 04:23:33;;;;;;;12.45;2.35;;;9.90;99.90;;;;;;5052541;28;20064;-78
2022/05/28 04:25:59;;;;;;;10.50;2.13;;;9.90;99.90;;;;;;5051592;28;20618;-78
2022/05/28 04:28:25;;;;;;;13.60;2.30;;;9.90;99.90;;;;;;5051238;28;20045;-78
2022/05/28 04:30:51;;;;;;;11.77;2.30;;;9.90;99.90;;;;;;5034715;28;20518;-79
2022/05/28 04:33:16;;;;;;;12.68;2.30;;;10.00;99.90;;;;;;5050695;28;20043;-79
2022/05/28 04:35:42;;;;;;;13.75;2.78;;;9.90;99.90;;;;;;5034639;28;20047;-79
2022/05/28 04:38:08;;;;;;;12.43;2.13;;;9.80;99.90;;;;;;5050980;28;20041;-79
2022/05/28 04:40:34;;;;;;;11.02;2.10;;;9.80;99.90;;;;;;5051613;28;20488;-79
2022/05/28 04:43:00;;;;;;;10.00;2.13;;;9.80;99.90;;;;;;5050962;28;20040;-79
2022/05/28 04:45:25;;;;;;;8.90;2.13;;;9.80;99.90;;;;;;5034710;28;20037;-79
2022/05/28 04:47:51;;;;;;;15.10;2.50;;;9.80;99.90;;;;;;5050402;28;20037;-78
2022/05/28 04:50:17;;;;;;;13.98;2.63;;;9.80;99.90;;;;;;5034721;28;20411;-78
2022/05/28 04:52:43;;;;;;;13.90;2.65;;;9.80;99.90;;;;;;5034435;28;20049;-78
2022/05/28 04:55:10;;;;;;;13.30;2.70;;;9.90;99.90;;;;;;5042525;28;20049;-79
2022/05/28 04:57:36;;;;;;;11.68;2.20;;;10.00;99.90;;;;;;5029042;28;20043;-79
2022/05/28 05:00:05;;;;;;;12.68;2.42;;;10.00;99.90;;;;;;5043181;28;20045;-79
2022/05/28 05:02:30;;;;;;;13.18;2.50;;;10.10;99.90;;;;;;5036922;28;20426;-79
2022/05/28 05:04:57;;;;;;;11.68;2.47;;;10.10;99.90;;;;;;5050392;28;20048;-78
2022/05/28 05:07:23;;;;;;;11.90;2.80;;;10.10;99.90;;;;;;5034355;28;20535;-78
2022/05/28 05:09:49;;;;;;;12.65;2.90;;;10.20;99.90;;;;;;5051077;28;20043;-78
2022/05/28 05:12:15;;;;;;;12.23;2.53;;;10.20;99.90;;;;;;5034174;28;20037;-78
2022/05/28 05:14:41;;;;;;;15.82;2.75;;;10.30;99.90;;;;;;5051024;28;20112;-78
2022/05/28 05:17:06;;;;;;;12.73;2.63;;;10.30;99.90;;;;;;5051765;28;20441;-78
2022/05/28 05:19:32;;;;;;;13.77;2.63;;;10.70;99.90;;;;;;5050927;28;20094;-79
2022/05/28 05:21:58;;;;;;;10.70;2.47;;;11.00;99.90;;;;;;5050714;28;20049;-79
2022/05/28 05:24:24;;;;;;;13.45;2.78;;;11.30;99.90;;;;;;5050683;28;20099;-78
2022/05/28 05:26:50;;;;;;;15.45;2.45;;;11.60;99.90;;;;;;5050663;28;20076;-78
2022/05/28 05:29:16;;;;;;;13.77;2.95;;;11.70;99.90;;;;;;5050557;28;20045;-78
2022/05/28 05:31:42;;;;;;;13.80;2.50;;;11.60;99.90;;;;;;5047977;28;20099;-78
2022/05/28 05:34:08;;;;;;;14.38;2.63;;;11.50;99.90;;;;;;5033969;28;20038;-78
2022/05/28 05:36:34;;;;;;;17.90;3.20;;;11.50;99.90;;;;;;5030710;28;20033;-79
2022/05/28 05:39:00;;;;;;;12.40;2.85;;;11.40;99.90;;;;;;5030718;28;20045;-79
2022/05/28 05:41:26;;;;;;;16.50;2.97;;;11.40;99.90;;;;;;5035337;28;20043;-78
2022/05/28 05:43:51;;;;;;;15.15;2.83;;;11.60;99.90;;;;;;5041738;28;20045;-78
2022/05/28 05:46:18;;;;;;;13.30;2.80;;;11.90;99.90;;;;;;5047659;28;20063;-78
2022/05/28 05:48:44;;;;;;;14.00;2.45;;;12.10;99.90;;;;;;5034952;28;20467;-78
2022/05/28 05:51:12;;;;;;;15.70;3.00;;;12.10;99.90;;;;;;5035102;28;20113;-78
2022/05/28 05:53:38;;;;;;;15.80;2.90;;;12.10;99.90;;;;;;5052439;28;20041;-78
2022/05/28 05:56:04;;;;;;;18.08;2.92;;;12.10;99.90;;;;;;5033041;28;20510;-78
2022/05/28 05:58:30;;;;;;;16.30;3.17;;;12.00;99.90;;;;;;5037998;28;20051;-78
2022/05/28 06:00:56;;;;;;;14.27;3.13;;;12.10;99.90;;;;;;5043307;28;20040;-78
2022/05/28 06:03:22;;;;;;;16.65;3.15;;;12.10;99.90;;;;;;5030575;28;20132;-78
2022/05/28 06:05:48;;;;;;;16.25;3.20;;;12.30;99.90;;;;;;5054677;28;20106;-78
2022/05/28 06:08:16;;;;;;;15.95;2.92;;;12.40;99.90;;;;;;5037445;28;20045;-78
2022/05/28 06:10:43;;;;;;;14.82;2.90;;;12.40;99.90;;;;;;5037695;28;20091;-78
2022/05/28 06:13:09;;;;;;;17.00;3.20;;;12.60;99.90;;;;;;5037046;28;20045;-78
2022/05/28 06:15:35;;;;;;;16.00;3.38;;;12.90;99.90;;;;;;5019342;28;20041;-78
2022/05/28 06:18:01;;;;;;;12.43;2.70;;;13.10;99.90;;;;;;5053006;28;20519;-78
2022/05/28 06:20:26;;;;;;;13.48;3.03;;;13.90;99.90;;;;;;5037413;28;20073;-78
2022/05/28 06:22:52;;;;;;;14.52;3.20;;;14.30;99.90;;;;;;5039303;28;20045;-78
2022/05/28 06:25:18;;;;;;;12.90;2.88;;;14.70;99.90;;;;;;5037140;28;20068;-78
2022/05/28 06:27:46;;;;;;;13.50;3.05;;;15.00;99.90;;;;;;5016937;28;20091;-78
2022/05/28 06:30:12;;;;;;;11.73;2.70;;;15.30;99.90;;;;;;5043984;28;20508;-78
2022/05/28 06:32:38;;;;;;;11.65;2.42;;;15.40;99.90;;;;;;5052951;28;20508;-78
2022/05/28 06:35:04;;;;;;;14.05;2.88;;;15.30;99.90;;;;;;5053533;28;20040;-78
2022/05/28 06:37:29;;;;;;;11.95;2.58;;;15.30;99.90;;;;;;5052806;28;20037;-78
2022/05/28 06:39:55;;;;;;;11.70;2.50;;;16.20;99.90;;;;;;5053510;28;20041;-78
2022/05/28 06:42:21;;;;;;;10.65;2.70;;;16.10;99.90;;;;;;5033819;28;20037;-78
2022/05/28 06:44:46;;;;;;;13.38;2.97;;;16.10;97.80;;;;;;5051588;28;20066;-78
2022/05/28 06:47:12;;;;;;;12.57;2.85;;;15.40;99.40;;;;;;5032421;28;20511;-78
2022/05/28 06:49:38;;;;;;;10.45;2.47;;;15.30;99.90;;;;;;5033111;28;20412;-78
2022/05/28 06:52:04;;;;;;;10.52;2.35;;;15.40;99.90;;;;;;5016401;28;20087;-78
2022/05/28 06:54:30;;;;;;;12.35;2.80;;;15.50;99.90;;;;;;5046296;28;20040;-78
2022/05/28 06:56:55;;;;;;;9.88;2.40;;;15.40;99.90;;;;;;5021156;28;20484;-78
2022/05/28 06:59:21;;;;;;;11.82;2.40;;;15.50;99.90;;;;;;5025573;28;20091;-78
2022/05/28 07:01:47;;;;;;;12.98;2.88;;;15.40;99.90;;;;;;5018961;28;20049;-78
2022/05/28 07:04:13;;;;;;;10.00;2.22;;;16.00;99.90;;;;;;5018584;28;20045;-78
2022/05/28 07:06:38;;;;;;;13.75;2.85;;;16.30;99.30;;;;;;5032758;28;20408;-78
2022/05/28 07:09:05;;;;;;;16.20;2.83;;;15.80;99.70;;;;;;5028701;28;20044;-78
2022/05/28 07:11:32;;;;;;;14.05;2.65;;;15.40;99.90;;;;;;5043137;28;20041;-78
2022/05/28 07:13:57;;;;;;;12.68;2.63;;;14.80;99.90;;;;;;5036312;28;20102;-78
2022/05/28 07:16:23;;;;;;;14.48;2.60;;;14.20;99.90;;;;;;5035345;28;20116;-78
2022/05/28 07:18:49;;;;;;;11.93;2.97;;;13.80;99.90;;;;;;5053487;28;20145;-78
2022/05/28 07:21:14;;;;;;;12.15;2.92;;;13.70;99.90;;;;;;5036314;28;20151;-80
2022/05/28 07:23:40;;;;;;;9.60;2.50;;;13.80;99.90;;;;;;5035818;28;20590;-80
2022/05/28 07:26:13;;;;;;;10.60;2.30;;;13.90;99.90;;;;;;5035596;28;20126;-79
2022/05/28 07:28:40;;;;;;;11.80;2.40;;;13.80;99.90;;;;;;5035809;28;20171;-79
2022/05/28 07:31:15;;;;;;;10.48;2.40;;;14.10;99.90;;;;;;5035208;28;20040;-79
2022/05/28 07:33:42;;;;;;;11.05;2.40;;;14.10;99.90;;;;;;5052617;28;20427;-79
2022/05/28 07:36:11;;;;;;;9.90;2.58;;;14.10;99.90;;;;;;5051903;28;20048;-79
2022/05/28 07:38:38;;;;;;;11.00;2.53;;;14.10;99.90;;;;;;5035603;28;20043;-79
2022/05/28 07:41:06;;;;;;;12.02;2.38;;;14.10;99.90;;;;;;5031992;28;20037;-78
2022/05/28 07:43:33;;;;;;;11.95;2.38;;;14.10;99.90;;;;;;5052049;28;20087;-78
2022/05/28 07:45:58;;;;;;;11.35;2.47;;;13.80;99.90;;;;;;5052244;28;20051;-77
2022/05/28 07:48:25;;;;;;;11.13;2.45;;;13.60;99.90;;;;;;5035150;28;20465;-77
2022/05/28 07:50:51;;;;;;;10.70;2.13;;;13.50;99.90;;;;;;4999325;28;20073;-77
2022/05/28 07:53:17;;;;;;;10.75;2.30;;;13.50;99.90;;;;;;5030038;28;20389;-77
2022/05/28 07:55:43;;;;;;;11.95;2.40;;;13.50;99.90;;;;;;5025622;28;20067;-77
2022/05/28 07:58:14;;;;;;;11.48;2.15;;;13.80;99.90;;;;;;5051689;28;20037;-77
2022/05/28 08:00:44;;;;;;;15.15;2.58;;;14.00;99.90;;;;;;5047457;28;20481;-77
2022/05/28 08:03:11;;;;;;;10.85;2.45;;;14.00;99.90;;;;;;5033056;28;20547;-77
2022/05/28 08:05:38;;;;;;;10.40;2.10;;;14.00;99.90;;;;;;5032632;28;20045;-77
2022/05/28 08:08:05;;;;;;;10.05;2.17;;;14.40;99.90;;;;;;5031359;28;20043;-77
2022/05/28 08:10:31;;;;;;;10.65;1.88;;;14.50;99.90;;;;;;5031108;28;20029;-77
2022/05/28 08:13:05;;;;;;;12.13;2.30;;;14.70;99.90;;;;;;5024624;28;20052;-77
2022/05/28 08:15:31;;;;;;;10.23;2.35;;;14.80;99.90;;;;;;5031313;28;20120;-78
2022/05/28 08:17:57;;;;;;;12.18;2.50;;;15.20;99.90;;;;;;5014423;28;20048;-76
2022/05/28 08:23:08;;;;;;;11.82;2.58;;;15.50;99.90;;;;;;5031805;28;20045;-76
2022/05/28 08:23:08;;;;;;;14.98;3.08;;;15.60;99.20;;;;;;5020210;28;20140;-77
2022/05/28 08:25:34;;;;;;;13.07;2.50;;;15.70;99.90;;;;;;5032444;28;20532;-77
2022/05/28 08:28:00;;;;;;;13.52;2.78;;;16.10;99.90;;;;;;4963703;28;20051;-77
2022/05/28 08:30:26;;;;;;;13.32;2.90;;;16.40;99.90;;;;;;5000474;28;20064;-77
2022/05/28 08:32:52;;;;;;;14.32;3.03;;;16.60;99.80;;;;;;5025415;28;20487;-77
2022/05/28 08:35:17;;;;;;;14.05;2.70;;;16.50;99.50;;;;;;5030659;28;20094;-77
2022/05/28 08:37:43;;;;;;;12.93;3.05;;;16.70;98.80;;;;;;5041349;28;20047;-77
2022/05/28 08:40:10;;;;;;;12.63;3.20;;;16.50;98.30;;;;;;5027533;28;20034;-77
2022/05/28 08:42:37;;;;;;;12.38;3.10;;;16.20;98.20;;;;;;5027121;28;20071;-77
2022/05/28 08:45:05;;;;;;;16.77;2.97;;;16.00;99.40;;;;;;5028454;28;20049;-77
2022/05/28 08:47:35;;;;;;;11.85;2.78;;;15.80;99.80;;;;;;5039881;28;20037;-77
2022/05/28 08:50:01;;;;;;;14.07;2.95;;;15.70;99.70;;;;;;5046750;28;20033;-77
2022/05/28 08:52:39;;;;;;;13.18;3.00;;;15.40;99.90;;;;;;5024097;28;20452;-77
2022/05/28 08:55:23;;;;;;;14.48;3.10;;;15.30;99.90;;;;;;5041450;28;20048;-77
2022/05/28 08:57:57;;;;;;;11.15;2.80;;;15.40;99.90;;;;;;5047416;28;20045;-77
2022/05/28 09:00:43;;;;;;;11.23;2.65;;;15.40;99.90;;;;;;5049417;28;20128;-77
2022/05/28 09:03:15;;;;;;;12.13;2.72;;;15.50;99.90;;;;;;5029074;28;20518;-77
2022/05/28 09:05:46;;;;;;;13.18;3.00;;;15.40;99.90;;;;;;5031312;28;20123;-77
2022/05/28 09:08:13;;;;;;;13.90;2.95;;;15.40;99.90;;;;;;5030041;28;20044;-77
2022/05/28 09:10:47;;;;;;;13.10;3.10;;;15.10;99.90;;;;;;5031584;28;20042;-77
2022/05/28 09:13:24;;;;;;;12.05;3.03;;;15.10;99.90;;;;;;5043219;28;20511;-77
2022/05/28 09:15:52;;;;;;;11.95;3.00;;;15.00;99.90;;;;;;5028016;28;20540;-77
2022/05/28 09:18:19;;;;;;;12.40;3.10;;;14.70;99.90;;;;;;5035084;28;20045;-77
2022/05/28 09:20:48;;;;;;;13.35;2.65;;;14.40;99.90;;;;;;5036348;28;20396;-77
2022/05/28 09:23:14;;;;;;;13.50;3.03;;;14.40;99.90;;;;;;5051100;28;20167;-77
2022/05/28 09:25:43;;;;;;;14.15;2.80;;;14.80;99.90;;;;;;5019457;28;20427;-77
2022/05/28 09:28:39;;;;;;;11.77;2.88;;;15.10;99.90;;;;;;5048525;28;20052;-77
2022/05/28 09:31:30;;;;;;;16.58;3.05;;;15.40;99.90;;;;;;5052607;28;20454;-77
2022/05/28 09:34:16;;;;;;;17.42;3.05;;;15.90;99.90;;;;;;5034107;28;20049;-77
2022/05/28 09:37:06;;;;;;;18.52;3.03;;;16.00;99.40;;;;;;5049249;28;20039;-76
2022/05/28 09:39:54;;;;;;;12.32;2.88;;;15.90;99.60;;;;;;5035957;28;20068;-76
2022/05/28 09:42:26;;;;;;;15.27;3.20;;;16.10;99.90;;;;;;5050872;28;20051;-76
2022/05/28 09:45:04;;;;;;;;;;;16.30;99.80;;;;;;5052132;28;20044;-77
2022/05/28 09:47:46;;;;;;;13.85;3.30;;;16.40;98.40;;;;;;5047346;28;19960;-77
2022/05/28 09:50:40;;;;;;;9.88;2.75;;;16.70;99.80;;;;;;5051740;28;20099;-77
2022/05/28 09:56:08;;;;;;;12.00;2.97;;;17.30;91.70;;;;;;5053553;28;20048;-77
2022/05/28 09:58:37;;;;;;;11.98;2.88;;;17.20;95.30;;;;;;5055715;28;20037;-77
2022/05/28 10:01:12;;;;;;;12.35;3.00;;;17.00;93.40;;;;;;5051269;28;20041;-77
2022/05/28 10:06:27;;;;;;;12.93;2.78;;;16.00;92.80;;;;;;5039015;28;20485;-77
2022/05/28 10:08:53;;;;;;;12.98;2.67;;;15.60;93.90;;;;;;5046035;28;20037;-77
2022/05/28 10:11:20;;;;;;;15.60;3.08;;;15.40;96.00;;;;;;5045287;28;20389;-77
2022/05/28 10:13:52;;;;;;;13.68;2.92;;;15.30;95.50;;;;;;5030419;28;20476;-77
2022/05/28 10:16:20;;;;;;;;;;;15.40;97.20;;;;;;5047380;28;20794;-77
2022/05/28 10:18:49;;;;;;;14.00;2.63;;;15.50;97.90;;;;;;5042812;28;20582;-77
2022/05/28 10:21:18;;;;;;;11.20;2.60;;;15.60;97.50;;;;;;5059544;28;20484;-77
2022/05/28 10:23:51;;;;;;;10.70;2.20;;;15.40;93.90;;;;;;5033288;28;20085;-77
2022/05/28 10:26:45;;;;;;;12.93;2.65;;;15.70;95.90;;;;;;5046057;28;20040;-77
2022/05/28 10:29:31;;;;;;;14.02;2.50;;;15.90;95.10;;;;;;5032427;28;20087;-77
2022/05/28 10:32:00;;;;;;;10.73;2.45;;;16.10;92.20;;;;;;5045111;28;20382;-77
2022/05/28 10:34:31;;;;;;;11.07;2.60;;;16.40;94.90;;;;;;5050316;28;20546;-76
2022/05/28 10:37:15;;;;;;;13.10;2.65;;;16.70;95.00;;;;;;5042802;28;20063;-76
2022/05/28 10:39:42;;;;;;;10.52;2.53;;;16.90;85.40;;;;;;5042906;28;20041;-76
2022/05/28 10:42:11;;;;;;;9.32;2.20;;;16.80;90.50;;;;;;5046146;28;20049;-76
2022/05/28 10:44:39;;;;;;;11.90;2.80;;;16.60;91.60;;;;;;5045457;28;20522;-77
2022/05/28 10:47:14;;;;;;;13.30;2.80;;;16.20;92.90;;;;;;5040560;28;20076;-77
2022/05/28 10:50:07;;;;;;;13.63;2.83;;;15.70;90.00;;;;;;5042358;28;20088;-77
2022/05/28 10:53:07;;;;;;;17.58;3.17;;;15.40;95.30;;;;;;5048326;28;20111;-77
2022/05/28 10:55:57;;;;;;;12.43;3.00;;;14.80;98.40;;;;;;5032624;28;20045;-77
2022/05/28 10:58:44;;;;;;;12.57;2.85;;;14.40;99.90;;;;;;5032681;28;20392;-77
2022/05/28 11:01:44;;;;;;;14.85;3.10;;;14.30;99.90;;;;;;5048933;28;20083;-77
2022/05/28 11:04:28;;;;;;;12.88;2.65;;;14.30;99.90;;;;;;5067082;28;20073;-77
2022/05/28 11:07:24;;;;;;;12.20;2.60;;;14.40;99.90;;;;;;5047890;28;20080;-77
2022/05/28 11:09:53;;;;;;;11.75;2.58;;;14.60;99.90;;;;;;5048940;28;20063;-77
2022/05/28 11:12:29;;;;;;;13.00;2.53;;;15.20;99.90;;;;;;5048044;28;20083;-77
2022/05/28 11:15:03;;;;;;;12.98;2.60;;;15.70;99.90;;;;;;5048671;28;20037;-77
2022/05/28 11:17:44;;;;;;;11.75;2.58;;;16.20;99.50;;;;;;5031898;28;20094;-77
2022/05/28 11:20:26;;;;;;;12.65;2.45;;;16.20;95.60;;;;;;5050948;28;20439;-77
2022/05/28 11:23:18;;;;;;;11.93;2.47;;;15.90;94.50;;;;;;5033549;28;20033;-77
2022/05/28 11:26:07;;;;;;;10.65;2.47;;;15.90;92.90;;;;;;5050578;28;20087;-77
2022/05/28 11:29:07;;;;;;;10.00;2.40;;;16.00;94.80;;;;;;5049796;28;20041;-77
2022/05/28 11:31:51;;;;;;;11.02;2.47;;;16.10;90.50;;;;;;5049674;28;20045;-77
2022/05/28 11:34:23;;;;;;;10.70;2.20;;;15.90;87.00;;;;;;5050936;28;20037;-77
2022/05/28 11:36:56;;;;;;;10.63;2.03;;;15.40;87.20;;;;;;5044306;28;20038;-77
2022/05/28 11:39:32;;;;;;;10.57;2.25;;;15.30;87.70;;;;;;5037948;28;20040;-77
2022/05/28 11:42:09;;;;;;;10.13;2.25;;;15.20;91.90;;;;;;5053682;28;20049;-77
2022/05/28 11:44:47;;;;;;;11.20;2.65;;;14.90;87.90;;;;;;5049274;28;20041;-77
2022/05/28 11:47:42;;;;;;;9.63;2.25;;;14.60;89.80;;;;;;5044695;28;20413;-77
2022/05/28 11:53:41;;;;;;;9.10;2.17;;;14.80;94.10;;;;;;5041015;28;20045;-77
2022/05/28 11:56:20;;;;;;;11.40;2.35;;;14.80;92.80;;;;;;5044548;28;20068;-76
2022/05/28 11:58:51;;;;;;;11.60;2.45;;;14.80;92.20;;;;;;5043361;28;20508;-76
2022/05/28 12:01:23;;;;;;;10.20;2.20;;;14.80;91.30;;;;;;5039543;28;20453;-77
2022/05/28 12:03:52;;;;;;;9.80;1.95;;;14.90;92.00;;;;;;5043343;28;20041;-77
2022/05/28 12:06:29;;;;;;;8.68;2.10;;;15.10;92.40;;;;;;5012719;28;20043;-77
2022/05/28 12:09:01;;;;;;;9.38;1.77;;;15.30;90.40;;;;;;5040798;28;20038;-77
2022/05/28 12:12:00;;;;;;;7.53;2.00;;;15.40;91.90;;;;;;5040059;28;20052;-77
2022/05/28 12:14:36;;;;;;;10.82;2.10;;;15.60;91.40;;;;;;5034170;28;20045;-77
2022/05/28 12:17:10;;;;;;;13.05;2.10;;;16.30;91.70;;;;;;5044353;28;20037;-77
2022/05/28 12:19:48;;;;;;;11.77;2.30;;;16.40;82.00;;;;;;5045065;28;20125;-77
2022/05/28 12:22:27;;;;;;;10.63;2.40;;;15.90;80.20;;;;;;5047539;28;20404;-77
2022/05/28 12:25:11;;;;;;;10.60;2.30;;;15.40;79.70;;;;;;5046441;28;20089;-77
2022/05/28 12:27:54;;;;;;;11.52;2.20;;;15.50;82.60;;;;;;5046344;28;20453;-77
2022/05/28 12:30:43;;;;;;;11.88;2.35;;;15.50;86.30;;;;;;5046918;28;20471;-77
2022/05/28 12:33:19;;;;;;;11.07;2.28;;;15.70;88.90;;;;;;5028083;28;20394;-76
2022/05/28 12:36:18;;;;;;;14.85;2.90;;;15.70;86.10;;;;;;5052701;28;20067;-76
2022/05/28 12:39:05;;;;;;;11.43;2.40;;;15.60;89.40;;;;;;5044294;28;20079;-77
2022/05/28 12:41:35;;;;;;;11.95;2.75;;;15.00;93.90;;;;;;5043693;28;20045;-77
2022/05/28 12:44:16;;;;;;;13.25;2.45;;;14.60;94.90;;;;;;5027525;28;20045;-77
2022/05/28 12:46:49;;;;;;;11.13;2.42;;;14.30;97.10;;;;;;5041423;28;20124;-77
2022/05/28 12:49:28;;;;;;;11.40;2.38;;;14.10;98.50;;;;;;5040981;28;20045;-77
2022/05/28 12:52:22;;;;;;;10.63;2.25;;;13.90;97.90;;;;;;5042615;28;20038;-77
2022/05/28 12:55:04;;;;;;;11.00;2.20;;;14.10;98.40;;;;;;5053036;28;20032;-77
2022/05/28 12:57:34;;;;;;;8.27;2.30;;;14.10;97.00;;;;;;5052113;28;20060;-77
2022/05/28 13:00:21;;;;;;;7.65;2.00;;;14.10;98.00;;;;;;5054224;28;20051;-77
2022/05/28 13:02:48;;;;;;;10.20;2.38;;;14.30;98.50;;;;;;5036806;28;20053;-77
2022/05/28 13:05:26;;;;;;;9.52;2.20;;;14.60;98.40;;;;;;5037388;28;20068;-77
2022/05/28 13:07:55;;;;;;;9.65;2.33;;;15.00;98.10;;;;;;5050422;28;20045;-77
2022/05/28 13:10:29;;;;;;;11.02;2.40;;;15.50;97.70;;;;;;5054659;28;20033;-77